sensor_id;sensor_type;location;lat;lon;timestamp;temperature;humidity
57566;DHT22;43401;43.788;-0.712;2022-08-14T00:00:45;24.30;99.90
57566;DHT22;43401;43.788;-0.712;2022-08-14T00:03:43;24.50;99.90
57566;DHT22;43401;43.788;-0.712;2022-08-14T00:06:03;24.40;99.90
57566;DHT22;43401;43.788;-0.712;2022-08-14T00:08:28;24.40;99.90
57566;DHT22;43401;43.788;-0.712;2022-08-14T00:10:54;24.10;99.90
57566;DHT22;43401;43.788;-0.712;2022-08-14T00:13:22;24.40;99.90
57566;DHT22;43401;43.788;-0.712;2022-08-14T00:15:49;24.30;99.90
57566;DHT22;43401;43.788;-0.712;2022-08-14T00:18:21;24.20;99.90
57566;DHT22;43401;43.788;-0.712;2022-08-14T00:20:47;24.20;99.90
57566;DHT22;43401;43.788;-0.712;2022-08-14T00:23:13;24.40;99.90
57566;DHT22;43401;43.788;-0.712;2022-08-14T00:25:39;24.20;99.90
57566;DHT22;43401;43.788;-0.712;2022-08-14T00:28:06;24.20;99.90
57566;DHT22;43401;43.788;-0.712;2022-08-14T00:30:32;24.10;99.90
57566;DHT22;43401;43.788;-0.712;2022-08-14T00:32:58;24.10;99.90
57566;DHT22;43401;43.788;-0.712;2022-08-14T00:35:23;24.10;99.90
57566;DHT22;43401;43.788;-0.712;2022-08-14T00:37:49;24.10;99.90
57566;DHT22;43401;43.788;-0.712;2022-08-14T00:40:15;23.80;99.90
57566;DHT22;43401;43.788;-0.712;2022-08-14T00:42:41;23.90;99.90
57566;DHT22;43401;43.788;-0.712;2022-08-14T00:45:08;23.80;99.90
57566;DHT22;43401;43.788;-0.712;2022-08-14T00:47:34;23.80;99.90
57566;DHT22;43401;43.788;-0.712;2022-08-14T00:50:00;23.90;99.90
57566;DHT22;43401;43.788;-0.712;2022-08-14T00:52:26;23.80;99.90
57566;DHT22;43401;43.788;-0.712;2022-08-14T00:54:52;23.80;99.90
57566;DHT22;43401;43.788;-0.712;2022-08-14T00:57:22;24.10;99.90
57566;DHT22;43401;43.788;-0.712;2022-08-14T00:59:48;24.10;99.90
57566;DHT22;43401;43.788;-0.712;2022-08-14T01:02:14;24.10;99.90
57566;DHT22;43401;43.788;-0.712;2022-08-14T01:04:40;24.00;99.90
57566;DHT22;43401;43.788;-0.712;2022-08-14T01:07:05;24.00;99.90
57566;DHT22;43401;43.788;-0.712;2022-08-14T01:09:31;23.90;99.90
57566;DHT22;43401;43.788;-0.712;2022-08-14T01:11:57;24.00;99.90
57566;DHT22;43401;43.788;-0.712;2022-08-14T01:14:24;23.90;99.90
57566;DHT22;43401;43.788;-0.712;2022-08-14T01:16:49;23.90;99.90
57566;DHT22;43401;43.788;-0.712;2022-08-14T01:19:15;24.00;99.90
57566;DHT22;43401;43.788;-0.712;2022-08-14T01:21:59;23.80;99.90
57566;DHT22;43401;43.788;-0.712;2022-08-14T01:24:25;23.90;99.90
57566;DHT22;43401;43.788;-0.712;2022-08-14T01:26:51;23.60;99.90
57566;DHT22;43401;43.788;-0.712;2022-08-14T01:29:18;23.70;99.90
57566;DHT22;43401;43.788;-0.712;2022-08-14T01:31:44;23.80;99.90
57566;DHT22;43401;43.788;-0.712;2022-08-14T01:34:10;23.80;99.90
57566;DHT22;43401;43.788;-0.712;2022-08-14T01:36:35;23.80;99.90
57566;DHT22;43401;43.788;-0.712;2022-08-14T01:39:06;23.90;99.90
57566;DHT22;43401;43.788;-0.712;2022-08-14T01:41:32;24.00;99.90
57566;DHT22;43401;43.788;-0.712;2022-08-14T01:44:00;23.70;99.90
57566;DHT22;43401;43.788;-0.712;2022-08-14T01:46:27;23.80;99.90
57566;DHT22;43401;43.788;-0.712;2022-08-14T01:48:54;23.80;99.90
57566;DHT22;43401;43.788;-0.712;2022-08-14T01:51:21;23.60;99.90
57566;DHT22;43401;43.788;-0.712;2022-08-14T01:53:48;23.70;99.90
57566;DHT22;43401;43.788;-0.712;2022-08-14T01:56:15;24.00;99.90
57566;DHT22;43401;43.788;-0.712;2022-08-14T01:58:46;23.90;99.90
57566;DHT22;43401;43.788;-0.712;2022-08-14T02:01:16;23.80;99.90
57566;DHT22;43401;43.788;-0.712;2022-08-14T02:03:42;23.80;99.90
57566;DHT22;43401;43.788;-0.712;2022-08-14T02:06:08;23.70;99.90
57566;DHT22;43401;43.788;-0.712;2022-08-14T02:08:36;23.80;99.90
57566;DHT22;43401;43.788;-0.712;2022-08-14T02:11:04;23.70;99.90
57566;DHT22;43401;43.788;-0.712;2022-08-14T02:13:44;23.60;99.90
57566;DHT22;43401;43.788;-0.712;2022-08-14T02:16:10;23.70;99.90
57566;DHT22;43401;43.788;-0.712;2022-08-14T02:18:36;23.60;99.90
57566;DHT22;43401;43.788;-0.712;2022-08-14T02:21:02;23.60;99.90
57566;DHT22;43401;43.788;-0.712;2022-08-14T02:23:29;23.60;99.90
57566;DHT22;43401;43.788;-0.712;2022-08-14T02:25:55;23.60;99.90
57566;DHT22;43401;43.788;-0.712;2022-08-14T02:28:21;23.60;99.90
57566;DHT22;43401;43.788;-0.712;2022-08-14T02:30:48;23.60;99.90
57566;DHT22;43401;43.788;-0.712;2022-08-14T02:33:13;23.50;99.90
57566;DHT22;43401;43.788;-0.712;2022-08-14T02:35:39;23.50;99.90
57566;DHT22;43401;43.788;-0.712;2022-08-14T02:38:05;23.70;99.90
57566;DHT22;43401;43.788;-0.712;2022-08-14T02:40:31;23.60;99.90
57566;DHT22;43401;43.788;-0.712;2022-08-14T02:42:56;23.50;99.90
57566;DHT22;43401;43.788;-0.712;2022-08-14T02:45:23;23.40;99.90
57566;DHT22;43401;43.788;-0.712;2022-08-14T02:47:48;23.40;99.90
57566;DHT22;43401;43.788;-0.712;2022-08-14T02:50:14;23.50;99.90
57566;DHT22;43401;43.788;-0.712;2022-08-14T02:52:41;23.50;99.90
57566;DHT22;43401;43.788;-0.712;2022-08-14T02:55:07;23.50;99.90
57566;DHT22;43401;43.788;-0.712;2022-08-14T02:57:33;23.60;99.90
57566;DHT22;43401;43.788;-0.712;2022-08-14T02:59:59;23.50;99.90
57566;DHT22;43401;43.788;-0.712;2022-08-14T03:02:24;23.40;99.90
57566;DHT22;43401;43.788;-0.712;2022-08-14T03:04:51;23.50;99.90
57566;DHT22;43401;43.788;-0.712;2022-08-14T03:07:18;23.40;99.90
57566;DHT22;43401;43.788;-0.712;2022-08-14T03:09:43;23.10;99.90
57566;DHT22;43401;43.788;-0.712;2022-08-14T03:12:09;23.10;99.90
57566;DHT22;43401;43.788;-0.712;2022-08-14T03:14:36;23.00;99.90
57566;DHT22;43401;43.788;-0.712;2022-08-14T03:17:07;23.30;99.90
57566;DHT22;43401;43.788;-0.712;2022-08-14T03:19:34;23.40;99.90
57566;DHT22;43401;43.788;-0.712;2022-08-14T03:22:00;23.30;99.90
57566;DHT22;43401;43.788;-0.712;2022-08-14T03:24:26;23.00;99.90
57566;DHT22;43401;43.788;-0.712;2022-08-14T03:26:51;23.10;99.90
57566;DHT22;43401;43.788;-0.712;2022-08-14T03:29:19;23.30;99.90
57566;DHT22;43401;43.788;-0.712;2022-08-14T03:31:45;23.50;99.90
57566;DHT22;43401;43.788;-0.712;2022-08-14T03:34:10;23.40;99.90
57566;DHT22;43401;43.788;-0.712;2022-08-14T03:36:37;23.40;99.90
57566;DHT22;43401;43.788;-0.712;2022-08-14T03:39:05;23.40;99.90
57566;DHT22;43401;43.788;-0.712;2022-08-14T03:41:31;23.40;99.90
57566;DHT22;43401;43.788;-0.712;2022-08-14T03:43:57;23.30;99.90
57566;DHT22;43401;43.788;-0.712;2022-08-14T03:46:24;23.30;99.90
57566;DHT22;43401;43.788;-0.712;2022-08-14T03:48:52;23.30;99.90
57566;DHT22;43401;43.788;-0.712;2022-08-14T03:51:22;23.20;99.90
57566;DHT22;43401;43.788;-0.712;2022-08-14T03:53:51;23.20;99.90
57566;DHT22;43401;43.788;-0.712;2022-08-14T03:56:17;23.10;99.90
57566;DHT22;43401;43.788;-0.712;2022-08-14T03:58:44;23.10;99.90
57566;DHT22;43401;43.788;-0.712;2022-08-14T04:01:19;23.00;99.90
57566;DHT22;43401;43.788;-0.712;2022-08-14T04:03:47;23.10;99.90
57566;DHT22;43401;43.788;-0.712;2022-08-14T04:06:12;23.10;99.90
57566;DHT22;43401;43.788;-0.712;2022-08-14T04:08:38;23.10;99.90
57566;DHT22;43401;43.788;-0.712;2022-08-14T04:11:04;23.00;99.90
57566;DHT22;43401;43.788;-0.712;2022-08-14T04:13:31;23.00;99.90
57566;DHT22;43401;43.788;-0.712;2022-08-14T04:15:58;23.00;99.90
57566;DHT22;43401;43.788;-0.712;2022-08-14T04:18:24;23.00;99.90
57566;DHT22;43401;43.788;-0.712;2022-08-14T04:20:50;23.00;99.90
57566;DHT22;43401;43.788;-0.712;2022-08-14T04:23:15;22.90;99.90
57566;DHT22;43401;43.788;-0.712;2022-08-14T04:25:42;23.10;99.90
57566;DHT22;43401;43.788;-0.712;2022-08-14T04:28:08;23.00;99.90
57566;DHT22;43401;43.788;-0.712;2022-08-14T04:30:36;22.90;99.90
57566;DHT22;43401;43.788;-0.712;2022-08-14T04:33:06;22.90;99.90
57566;DHT22;43401;43.788;-0.712;2022-08-14T04:35:32;23.00;99.90
57566;DHT22;43401;43.788;-0.712;2022-08-14T04:37:58;23.00;99.90
57566;DHT22;43401;43.788;-0.712;2022-08-14T04:40:42;23.00;99.90
57566;DHT22;43401;43.788;-0.712;2022-08-14T04:43:26;22.90;99.90
57566;DHT22;43401;43.788;-0.712;2022-08-14T04:46:04;22.90;99.90
57566;DHT22;43401;43.788;-0.712;2022-08-14T04:48:30;22.80;99.90
57566;DHT22;43401;43.788;-0.712;2022-08-14T04:50:55;22.80;99.90
57566;DHT22;43401;43.788;-0.712;2022-08-14T04:53:22;22.90;99.90
57566;DHT22;43401;43.788;-0.712;2022-08-14T04:55:48;23.00;99.90
57566;DHT22;43401;43.788;-0.712;2022-08-14T04:58:14;22.80;99.90
57566;DHT22;43401;43.788;-0.712;2022-08-14T05:00:42;22.80;99.90
57566;DHT22;43401;43.788;-0.712;2022-08-14T05:03:08;22.90;99.90
57566;DHT22;43401;43.788;-0.712;2022-08-14T05:05:34;22.80;99.90
57566;DHT22;43401;43.788;-0.712;2022-08-14T05:08:07;22.90;99.90
57566;DHT22;43401;43.788;-0.712;2022-08-14T05:10:39;22.90;99.90
57566;DHT22;43401;43.788;-0.712;2022-08-14T05:13:05;23.00;99.90
57566;DHT22;43401;43.788;-0.712;2022-08-14T05:15:31;23.00;99.90
57566;DHT22;43401;43.788;-0.712;2022-08-14T05:17:57;23.00;99.90
57566;DHT22;43401;43.788;-0.712;2022-08-14T05:20:26;23.00;99.90
57566;DHT22;43401;43.788;-0.712;2022-08-14T05:22:51;23.00;99.90
57566;DHT22;43401;43.788;-0.712;2022-08-14T05:25:17;23.00;99.90
57566;DHT22;43401;43.788;-0.712;2022-08-14T05:27:43;23.10;99.90
57566;DHT22;43401;43.788;-0.712;2022-08-14T05:30:09;23.10;99.90
57566;DHT22;43401;43.788;-0.712;2022-08-14T05:32:35;23.10;99.90
57566;DHT22;43401;43.788;-0.712;2022-08-14T05:35:00;23.00;99.90
57566;DHT22;43401;43.788;-0.712;2022-08-14T05:37:27;23.00;99.90
57566;DHT22;43401;43.788;-0.712;2022-08-14T05:39:52;23.10;99.90
57566;DHT22;43401;43.788;-0.712;2022-08-14T05:42:19;23.10;99.90
57566;DHT22;43401;43.788;-0.712;2022-08-14T05:44:46;23.10;99.90
57566;DHT22;43401;43.788;-0.712;2022-08-14T05:47:11;22.90;99.90
57566;DHT22;43401;43.788;-0.712;2022-08-14T05:49:37;22.80;99.90
57566;DHT22;43401;43.788;-0.712;2022-08-14T05:52:03;22.90;99.90
57566;DHT22;43401;43.788;-0.712;2022-08-14T05:54:29;22.90;99.90
57566;DHT22;43401;43.788;-0.712;2022-08-14T05:56:55;22.90;99.90
57566;DHT22;43401;43.788;-0.712;2022-08-14T05:59:20;23.00;99.90
57566;DHT22;43401;43.788;-0.712;2022-08-14T06:01:46;23.00;99.90
57566;DHT22;43401;43.788;-0.712;2022-08-14T06:04:11;23.10;99.90
57566;DHT22;43401;43.788;-0.712;2022-08-14T06:06:37;23.00;99.90
57566;DHT22;43401;43.788;-0.712;2022-08-14T06:09:02;23.00;99.90
57566;DHT22;43401;43.788;-0.712;2022-08-14T06:11:28;23.10;99.90
57566;DHT22;43401;43.788;-0.712;2022-08-14T06:13:53;22.90;99.90
57566;DHT22;43401;43.788;-0.712;2022-08-14T06:16:19;23.10;99.90
57566;DHT22;43401;43.788;-0.712;2022-08-14T06:18:47;23.20;99.90
57566;DHT22;43401;43.788;-0.712;2022-08-14T06:21:13;23.10;99.90
57566;DHT22;43401;43.788;-0.712;2022-08-14T06:23:40;23.20;99.90
57566;DHT22;43401;43.788;-0.712;2022-08-14T06:26:05;23.20;99.90
57566;DHT22;43401;43.788;-0.712;2022-08-14T06:28:31;23.20;99.90
57566;DHT22;43401;43.788;-0.712;2022-08-14T06:30:56;23.20;99.90
57566;DHT22;43401;43.788;-0.712;2022-08-14T06:33:22;23.30;99.90
57566;DHT22;43401;43.788;-0.712;2022-08-14T06:35:48;23.10;99.90
57566;DHT22;43401;43.788;-0.712;2022-08-14T06:38:18;23.40;99.90
57566;DHT22;43401;43.788;-0.712;2022-08-14T06:40:44;23.20;99.90
57566;DHT22;43401;43.788;-0.712;2022-08-14T06:43:10;23.40;99.90
57566;DHT22;43401;43.788;-0.712;2022-08-14T06:45:37;23.30;99.90
57566;DHT22;43401;43.788;-0.712;2022-08-14T06:48:03;23.20;99.90
57566;DHT22;43401;43.788;-0.712;2022-08-14T06:50:29;23.40;99.90
57566;DHT22;43401;43.788;-0.712;2022-08-14T06:52:56;23.50;99.90
57566;DHT22;43401;43.788;-0.712;2022-08-14T06:55:22;23.40;99.90
57566;DHT22;43401;43.788;-0.712;2022-08-14T06:57:48;23.40;99.90
57566;DHT22;43401;43.788;-0.712;2022-08-14T07:00:15;23.40;99.90
57566;DHT22;43401;43.788;-0.712;2022-08-14T07:02:41;23.50;99.90
57566;DHT22;43401;43.788;-0.712;2022-08-14T07:05:25;23.40;99.90
57566;DHT22;43401;43.788;-0.712;2022-08-14T07:08:19;23.50;99.90
57566;DHT22;43401;43.788;-0.712;2022-08-14T07:10:47;23.50;99.90
57566;DHT22;43401;43.788;-0.712;2022-08-14T07:13:14;23.50;99.90
57566;DHT22;43401;43.788;-0.712;2022-08-14T07:15:42;23.40;99.90
57566;DHT22;43401;43.788;-0.712;2022-08-14T07:18:09;23.40;99.90
57566;DHT22;43401;43.788;-0.712;2022-08-14T07:20:39;23.40;99.90
57566;DHT22;43401;43.788;-0.712;2022-08-14T07:23:06;23.50;99.90
57566;DHT22;43401;43.788;-0.712;2022-08-14T07:25:32;23.50;99.90
57566;DHT22;43401;43.788;-0.712;2022-08-14T07:27:58;23.50;99.90
57566;DHT22;43401;43.788;-0.712;2022-08-14T07:30:23;23.50;99.90
57566;DHT22;43401;43.788;-0.712;2022-08-14T07:32:49;23.40;99.90
57566;DHT22;43401;43.788;-0.712;2022-08-14T07:35:15;23.40;99.90
57566;DHT22;43401;43.788;-0.712;2022-08-14T07:37:41;23.50;99.90
57566;DHT22;43401;43.788;-0.712;2022-08-14T07:40:06;23.50;99.90
57566;DHT22;43401;43.788;-0.712;2022-08-14T07:42:32;23.30;99.90
57566;DHT22;43401;43.788;-0.712;2022-08-14T07:44:58;23.40;99.90
57566;DHT22;43401;43.788;-0.712;2022-08-14T07:47:24;23.50;99.90
57566;DHT22;43401;43.788;-0.712;2022-08-14T07:52:21;23.60;99.90
57566;DHT22;43401;43.788;-0.712;2022-08-14T07:54:47;22.80;99.90
57566;DHT22;43401;43.788;-0.712;2022-08-14T07:57:12;23.00;99.90
57566;DHT22;43401;43.788;-0.712;2022-08-14T07:59:38;23.10;99.90
57566;DHT22;43401;43.788;-0.712;2022-08-14T08:02:05;23.30;99.90
57566;DHT22;43401;43.788;-0.712;2022-08-14T08:04:31;23.10;99.90
57566;DHT22;43401;43.788;-0.712;2022-08-14T08:06:57;23.10;99.90
57566;DHT22;43401;43.788;-0.712;2022-08-14T08:09:25;23.00;99.90
57566;DHT22;43401;43.788;-0.712;2022-08-14T08:11:51;23.00;99.90
57566;DHT22;43401;43.788;-0.712;2022-08-14T08:14:17;23.20;99.90
57566;DHT22;43401;43.788;-0.712;2022-08-14T08:16:44;23.30;99.90
57566;DHT22;43401;43.788;-0.712;2022-08-14T08:19:10;23.50;99.90
57566;DHT22;43401;43.788;-0.712;2022-08-14T08:21:38;23.50;99.90
57566;DHT22;43401;43.788;-0.712;2022-08-14T08:24:03;23.50;99.90
57566;DHT22;43401;43.788;-0.712;2022-08-14T08:26:29;23.50;99.90
57566;DHT22;43401;43.788;-0.712;2022-08-14T08:28:55;23.30;99.90
57566;DHT22;43401;43.788;-0.712;2022-08-14T08:31:21;23.40;99.90
57566;DHT22;43401;43.788;-0.712;2022-08-14T08:33:50;23.50;99.90
57566;DHT22;43401;43.788;-0.712;2022-08-14T08:36:16;23.50;99.90
57566;DHT22;43401;43.788;-0.712;2022-08-14T08:38:42;23.50;99.90
57566;DHT22;43401;43.788;-0.712;2022-08-14T08:41:10;23.30;99.90
57566;DHT22;43401;43.788;-0.712;2022-08-14T08:43:35;23.40;99.90
57566;DHT22;43401;43.788;-0.712;2022-08-14T08:46:05;23.30;99.90
57566;DHT22;43401;43.788;-0.712;2022-08-14T08:48:44;23.60;99.90
57566;DHT22;43401;43.788;-0.712;2022-08-14T08:51:18;23.50;99.90
57566;DHT22;43401;43.788;-0.712;2022-08-14T08:53:54;23.40;99.90
57566;DHT22;43401;43.788;-0.712;2022-08-14T08:56:19;23.40;99.90
57566;DHT22;43401;43.788;-0.712;2022-08-14T08:58:45;23.50;99.90
57566;DHT22;43401;43.788;-0.712;2022-08-14T09:01:11;23.00;99.90
57566;DHT22;43401;43.788;-0.712;2022-08-14T09:03:36;23.30;99.90
57566;DHT22;43401;43.788;-0.712;2022-08-14T09:06:03;23.30;99.90
57566;DHT22;43401;43.788;-0.712;2022-08-14T09:08:30;23.20;99.90
57566;DHT22;43401;43.788;-0.712;2022-08-14T09:10:56;23.30;99.90
57566;DHT22;43401;43.788;-0.712;2022-08-14T09:13:23;23.20;99.90
57566;DHT22;43401;43.788;-0.712;2022-08-14T09:15:53;23.30;99.90
57566;DHT22;43401;43.788;-0.712;2022-08-14T09:18:19;23.30;99.90
57566;DHT22;43401;43.788;-0.712;2022-08-14T09:20:47;23.30;99.90
57566;DHT22;43401;43.788;-0.712;2022-08-14T09:23:13;23.20;99.90
57566;DHT22;43401;43.788;-0.712;2022-08-14T09:25:40;23.20;99.90
57566;DHT22;43401;43.788;-0.712;2022-08-14T09:28:06;23.10;99.90
57566;DHT22;43401;43.788;-0.712;2022-08-14T09:30:33;23.50;99.90
57566;DHT22;43401;43.788;-0.712;2022-08-14T09:37:59;23.00;99.90
57566;DHT22;43401;43.788;-0.712;2022-08-14T09:45:43;23.40;99.90
57566;DHT22;43401;43.788;-0.712;2022-08-14T09:48:17;23.40;99.90
57566;DHT22;43401;43.788;-0.712;2022-08-14T09:50:44;23.20;99.90
57566;DHT22;43401;43.788;-0.712;2022-08-14T09:53:10;23.20;99.90
57566;DHT22;43401;43.788;-0.712;2022-08-14T09:55:37;23.40;99.90
57566;DHT22;43401;43.788;-0.712;2022-08-14T10:00:46;23.30;99.90
57566;DHT22;43401;43.788;-0.712;2022-08-14T10:03:12;23.30;99.90
57566;DHT22;43401;43.788;-0.712;2022-08-14T10:05:38;23.50;99.90
57566;DHT22;43401;43.788;-0.712;2022-08-14T10:08:04;23.50;99.90
57566;DHT22;43401;43.788;-0.712;2022-08-14T10:10:37;23.20;99.90
57566;DHT22;43401;43.788;-0.712;2022-08-14T10:13:04;23.00;99.90
57566;DHT22;43401;43.788;-0.712;2022-08-14T10:15:30;23.10;99.90
57566;DHT22;43401;43.788;-0.712;2022-08-14T10:20:31;23.10;99.90
57566;DHT22;43401;43.788;-0.712;2022-08-14T10:23:07;23.10;99.90
57566;DHT22;43401;43.788;-0.712;2022-08-14T10:25:38;23.30;99.90
57566;DHT22;43401;43.788;-0.712;2022-08-14T10:28:04;23.30;99.90
57566;DHT22;43401;43.788;-0.712;2022-08-14T10:30:32;23.50;99.90
57566;DHT22;43401;43.788;-0.712;2022-08-14T10:32:59;23.50;99.90
57566;DHT22;43401;43.788;-0.712;2022-08-14T10:35:24;23.60;99.90
57566;DHT22;43401;43.788;-0.712;2022-08-14T10:37:50;23.60;99.90
57566;DHT22;43401;43.788;-0.712;2022-08-14T10:40:28;23.50;99.90
57566;DHT22;43401;43.788;-0.712;2022-08-14T10:42:54;23.80;99.90
57566;DHT22;43401;43.788;-0.712;2022-08-14T10:45:22;23.80;99.90
57566;DHT22;43401;43.788;-0.712;2022-08-14T10:47:48;23.80;99.90
57566;DHT22;43401;43.788;-0.712;2022-08-14T10:50:14;23.50;99.90
57566;DHT22;43401;43.788;-0.712;2022-08-14T10:52:40;23.50;99.90
57566;DHT22;43401;43.788;-0.712;2022-08-14T10:55:07;23.50;99.90
57566;DHT22;43401;43.788;-0.712;2022-08-14T10:57:33;23.70;99.90
57566;DHT22;43401;43.788;-0.712;2022-08-14T11:00:12;23.70;99.90
57566;DHT22;43401;43.788;-0.712;2022-08-14T11:02:38;23.70;99.90
57566;DHT22;43401;43.788;-0.712;2022-08-14T11:05:06;23.80;99.90
57566;DHT22;43401;43.788;-0.712;2022-08-14T11:07:33;23.80;99.90
57566;DHT22;43401;43.788;-0.712;2022-08-14T11:10:00;23.80;99.90
57566;DHT22;43401;43.788;-0.712;2022-08-14T11:12:36;24.00;99.90
57566;DHT22;43401;43.788;-0.712;2022-08-14T11:15:02;24.20;99.90
57566;DHT22;43401;43.788;-0.712;2022-08-14T11:17:31;24.40;99.90
57566;DHT22;43401;43.788;-0.712;2022-08-14T11:19:57;24.40;99.90
57566;DHT22;43401;43.788;-0.712;2022-08-14T11:22:26;24.20;99.90
57566;DHT22;43401;43.788;-0.712;2022-08-14T11:24:53;24.50;99.90
57566;DHT22;43401;43.788;-0.712;2022-08-14T11:27:20;24.40;99.90
57566;DHT22;43401;43.788;-0.712;2022-08-14T11:29:49;24.60;99.90
57566;DHT22;43401;43.788;-0.712;2022-08-14T11:32:15;24.80;99.90
57566;DHT22;43401;43.788;-0.712;2022-08-14T11:34:41;24.90;99.90
57566;DHT22;43401;43.788;-0.712;2022-08-14T11:37:08;24.90;99.90
57566;DHT22;43401;43.788;-0.712;2022-08-14T11:39:33;25.10;99.90
57566;DHT22;43401;43.788;-0.712;2022-08-14T11:41:59;24.80;99.90
57566;DHT22;43401;43.788;-0.712;2022-08-14T11:44:26;24.80;99.90
57566;DHT22;43401;43.788;-0.712;2022-08-14T11:46:52;24.90;99.90
57566;DHT22;43401;43.788;-0.712;2022-08-14T11:49:24;25.00;99.90
57566;DHT22;43401;43.788;-0.712;2022-08-14T11:51:53;24.70;99.90
57566;DHT22;43401;43.788;-0.712;2022-08-14T11:54:19;25.00;99.90
57566;DHT22;43401;43.788;-0.712;2022-08-14T11:56:45;25.00;99.90
57566;DHT22;43401;43.788;-0.712;2022-08-14T11:59:15;25.00;99.90
57566;DHT22;43401;43.788;-0.712;2022-08-14T12:01:42;25.30;99.90
57566;DHT22;43401;43.788;-0.712;2022-08-14T12:04:19;25.10;99.90
57566;DHT22;43401;43.788;-0.712;2022-08-14T12:06:52;25.00;99.90
57566;DHT22;43401;43.788;-0.712;2022-08-14T12:09:28;25.10;99.90
57566;DHT22;43401;43.788;-0.712;2022-08-14T12:11:54;25.10;99.90
57566;DHT22;43401;43.788;-0.712;2022-08-14T12:14:20;25.30;99.90
57566;DHT22;43401;43.788;-0.712;2022-08-14T12:16:57;25.30;99.90
57566;DHT22;43401;43.788;-0.712;2022-08-14T12:19:22;25.10;99.90
57566;DHT22;43401;43.788;-0.712;2022-08-14T12:21:49;25.40;99.90
57566;DHT22;43401;43.788;-0.712;2022-08-14T12:24:15;25.40;99.90
57566;DHT22;43401;43.788;-0.712;2022-08-14T12:26:40;25.70;99.90
57566;DHT22;43401;43.788;-0.712;2022-08-14T12:29:07;25.80;99.90
57566;DHT22;43401;43.788;-0.712;2022-08-14T12:31:33;25.90;99.90
57566;DHT22;43401;43.788;-0.712;2022-08-14T12:34:03;25.90;99.90
57566;DHT22;43401;43.788;-0.712;2022-08-14T12:36:29;26.10;99.90
57566;DHT22;43401;43.788;-0.712;2022-08-14T12:39:02;26.00;99.90
57566;DHT22;43401;43.788;-0.712;2022-08-14T12:41:31;26.00;99.90
57566;DHT22;43401;43.788;-0.712;2022-08-14T12:44:01;26.00;99.90
57566;DHT22;43401;43.788;-0.712;2022-08-14T12:49:02;26.00;99.90
57566;DHT22;43401;43.788;-0.712;2022-08-14T12:51:30;26.10;99.90
57566;DHT22;43401;43.788;-0.712;2022-08-14T12:53:57;26.00;99.90
57566;DHT22;43401;43.788;-0.712;2022-08-14T12:56:23;26.00;99.90
57566;DHT22;43401;43.788;-0.712;2022-08-14T12:58:53;25.90;99.90
57566;DHT22;43401;43.788;-0.712;2022-08-14T13:01:22;26.10;99.90
57566;DHT22;43401;43.788;-0.712;2022-08-14T13:03:48;26.20;99.90
57566;DHT22;43401;43.788;-0.712;2022-08-14T13:06:14;26.30;99.90
57566;DHT22;43401;43.788;-0.712;2022-08-14T13:08:40;26.40;99.90
57566;DHT22;43401;43.788;-0.712;2022-08-14T13:11:13;26.30;99.90
57566;DHT22;43401;43.788;-0.712;2022-08-14T13:13:42;26.40;99.90
57566;DHT22;43401;43.788;-0.712;2022-08-14T13:16:10;26.40;99.90
57566;DHT22;43401;43.788;-0.712;2022-08-14T13:18:38;26.40;99.90
57566;DHT22;43401;43.788;-0.712;2022-08-14T13:21:04;26.40;99.90
57566;DHT22;43401;43.788;-0.712;2022-08-14T13:23:33;26.40;99.90
57566;DHT22;43401;43.788;-0.712;2022-08-14T13:25:59;26.30;99.90
57566;DHT22;43401;43.788;-0.712;2022-08-14T13:28:25;26.30;99.90
57566;DHT22;43401;43.788;-0.712;2022-08-14T13:30:51;26.40;99.90
57566;DHT22;43401;43.788;-0.712;2022-08-14T13:33:17;26.60;99.90
57566;DHT22;43401;43.788;-0.712;2022-08-14T13:35:48;26.50;99.90
57566;DHT22;43401;43.788;-0.712;2022-08-14T13:38:17;26.40;99.90
57566;DHT22;43401;43.788;-0.712;2022-08-14T13:40:44;26.30;99.90
57566;DHT22;43401;43.788;-0.712;2022-08-14T13:43:11;26.40;99.90
57566;DHT22;43401;43.788;-0.712;2022-08-14T13:45:37;25.80;99.90
57566;DHT22;43401;43.788;-0.712;2022-08-14T13:48:02;26.40;99.90
57566;DHT22;43401;43.788;-0.712;2022-08-14T13:50:28;26.60;99.90
57566;DHT22;43401;43.788;-0.712;2022-08-14T13:52:55;26.80;99.90
57566;DHT22;43401;43.788;-0.712;2022-08-14T13:55:26;26.70;99.90
57566;DHT22;43401;43.788;-0.712;2022-08-14T13:57:55;26.70;99.90
57566;DHT22;43401;43.788;-0.712;2022-08-14T14:00:21;26.50;99.90
57566;DHT22;43401;43.788;-0.712;2022-08-14T14:02:47;26.70;99.90
57566;DHT22;43401;43.788;-0.712;2022-08-14T14:05:13;26.80;99.90
57566;DHT22;43401;43.788;-0.712;2022-08-14T14:07:43;26.80;99.90
57566;DHT22;43401;43.788;-0.712;2022-08-14T14:10:11;26.90;99.90
57566;DHT22;43401;43.788;-0.712;2022-08-14T14:12:37;27.00;99.90
57566;DHT22;43401;43.788;-0.712;2022-08-14T14:15:07;26.90;99.90
57566;DHT22;43401;43.788;-0.712;2022-08-14T14:17:36;26.80;99.90
57566;DHT22;43401;43.788;-0.712;2022-08-14T14:20:03;26.60;99.90
57566;DHT22;43401;43.788;-0.712;2022-08-14T14:22:29;26.70;99.90
57566;DHT22;43401;43.788;-0.712;2022-08-14T14:24:55;26.90;99.90
57566;DHT22;43401;43.788;-0.712;2022-08-14T14:27:20;26.90;99.90
57566;DHT22;43401;43.788;-0.712;2022-08-14T14:29:48;27.10;99.90
57566;DHT22;43401;43.788;-0.712;2022-08-14T14:32:16;27.10;99.90
57566;DHT22;43401;43.788;-0.712;2022-08-14T14:34:42;27.20;99.90
57566;DHT22;43401;43.788;-0.712;2022-08-14T14:37:11;27.10;99.90
57566;DHT22;43401;43.788;-0.712;2022-08-14T14:39:38;26.90;99.90
57566;DHT22;43401;43.788;-0.712;2022-08-14T14:42:04;26.80;99.90
57566;DHT22;43401;43.788;-0.712;2022-08-14T14:44:34;27.00;99.90
57566;DHT22;43401;43.788;-0.712;2022-08-14T14:46:59;27.20;99.90
57566;DHT22;43401;43.788;-0.712;2022-08-14T14:49:26;27.10;99.90
57566;DHT22;43401;43.788;-0.712;2022-08-14T14:51:51;26.90;99.90
57566;DHT22;43401;43.788;-0.712;2022-08-14T14:54:18;26.80;99.90
57566;DHT22;43401;43.788;-0.712;2022-08-14T14:56:44;26.90;99.90
57566;DHT22;43401;43.788;-0.712;2022-08-14T14:59:11;27.10;99.90
57566;DHT22;43401;43.788;-0.712;2022-08-14T15:01:37;27.40;99.90
57566;DHT22;43401;43.788;-0.712;2022-08-14T15:04:03;27.30;99.90
57566;DHT22;43401;43.788;-0.712;2022-08-14T15:06:30;27.20;99.90
57566;DHT22;43401;43.788;-0.712;2022-08-14T15:08:56;27.30;99.90
57566;DHT22;43401;43.788;-0.712;2022-08-14T15:11:22;27.40;99.90
57566;DHT22;43401;43.788;-0.712;2022-08-14T15:13:47;27.40;99.90
57566;DHT22;43401;43.788;-0.712;2022-08-14T15:16:13;27.40;99.90
57566;DHT22;43401;43.788;-0.712;2022-08-14T15:18:39;27.40;99.90
57566;DHT22;43401;43.788;-0.712;2022-08-14T15:21:05;27.40;99.90
57566;DHT22;43401;43.788;-0.712;2022-08-14T15:23:31;27.50;99.90
57566;DHT22;43401;43.788;-0.712;2022-08-14T15:25:57;27.50;99.90
57566;DHT22;43401;43.788;-0.712;2022-08-14T15:28:23;27.50;99.90
57566;DHT22;43401;43.788;-0.712;2022-08-14T15:30:49;27.50;99.90
57566;DHT22;43401;43.788;-0.712;2022-08-14T15:33:14;27.40;99.90
57566;DHT22;43401;43.788;-0.712;2022-08-14T15:36:00;27.50;99.90